createdAt,value
2022-10-17T00:01:08.110Z,12.60
2022-10-17T00:03:37.463Z,12.60
2022-10-17T00:06:08.424Z,12.60
2022-10-17T00:08:37.202Z,12.60
2022-10-17T00:11:08.610Z,12.60
2022-10-17T00:13:37.201Z,12.60
2022-10-17T00:16:06.277Z,12.60
2022-10-17T00:18:34.571Z,12.50
2022-10-17T00:21:02.824Z,12.50
2022-10-17T00:23:31.409Z,12.50
2022-10-17T00:26:00.897Z,12.50
2022-10-17T00:28:30.586Z,12.50
2022-10-17T00:30:59.736Z,12.40
2022-10-17T00:33:28.441Z,12.40
2022-10-17T00:36:05.347Z,12.40
2022-10-17T00:38:33.776Z,12.40
2022-10-17T00:41:02.146Z,12.30
2022-10-17T00:43:49.771Z,12.30
2022-10-17T00:46:17.973Z,12.30
2022-10-17T00:48:47.322Z,12.30
2022-10-17T00:51:16.863Z,12.30
2022-10-17T00:53:45.256Z,12.20
2022-10-17T00:56:14.045Z,12.20
2022-10-17T00:58:43.701Z,12.20
2022-10-17T01:01:12.096Z,12.20
2022-10-17T01:03:40.390Z,12.10
2022-10-17T01:06:08.728Z,12.10
2022-10-17T01:08:37.539Z,12.10
2022-10-17T01:11:18.780Z,12.10
2022-10-17T01:13:54.711Z,12.00
2022-10-17T01:16:32.730Z,12.00
2022-10-17T01:19:14.986Z,12.00
2022-10-17T01:21:50.991Z,11.90
2022-10-17T01:24:56.916Z,12.00
2022-10-17T01:27:46.859Z,11.90
2022-10-17T01:30:47.324Z,11.90
2022-10-17T01:33:22.787Z,11.90
2022-10-17T01:35:55.710Z,11.80
2022-10-17T01:38:28.713Z,11.80
2022-10-17T01:41:03.975Z,11.80
2022-10-17T01:43:38.576Z,11.80
2022-10-17T01:46:14.047Z,11.80
2022-10-17T01:48:46.438Z,11.70
2022-10-17T01:51:19.413Z,11.70
2022-10-17T01:53:53.565Z,11.70
2022-10-17T01:56:25.636Z,11.70
2022-10-17T01:58:58.391Z,11.70
2022-10-17T02:01:29.682Z,11.60
2022-10-17T02:03:58.970Z,11.60
2022-10-17T02:06:27.278Z,11.60
2022-10-17T02:08:55.501Z,11.60
2022-10-17T02:11:25.544Z,11.60
2022-10-17T02:14:13.719Z,11.50
2022-10-17T02:16:53.858Z,11.50
2022-10-17T02:19:37.368Z,11.50
2022-10-17T02:22:17.649Z,11.40
2022-10-17T02:24:51.220Z,11.40
2022-10-17T02:27:31.586Z,11.40
2022-10-17T02:30:05.891Z,11.40
2022-10-17T02:32:45.468Z,11.40
2022-10-17T02:35:18.967Z,11.40
2022-10-17T02:37:48.558Z,11.30
2022-10-17T02:40:20.186Z,11.30
2022-10-17T02:42:49.181Z,11.30
2022-10-17T02:45:18.016Z,11.30
2022-10-17T02:47:56.896Z,11.20
2022-10-17T02:50:34.816Z,11.20
2022-10-17T02:53:07.504Z,11.20
2022-10-17T02:55:41.708Z,11.20
2022-10-17T02:58:15.484Z,11.20
2022-10-17T03:00:44.902Z,11.10
2022-10-17T03:03:26.220Z,11.10
2022-10-17T03:05:55.283Z,11.10
2022-10-17T03:08:23.596Z,11.10
2022-10-17T03:10:52.323Z,11.10
2022-10-17T03:13:20.651Z,11.10
2022-10-17T03:15:48.977Z,11.00
2022-10-17T03:18:17.244Z,11.10
2022-10-17T03:20:46.866Z,11.00
2022-10-17T03:23:15.089Z,11.00
2022-10-17T03:25:43.407Z,11.00
2022-10-17T03:28:13.319Z,11.00
2022-10-17T03:30:41.533Z,11.00
2022-10-17T03:33:09.775Z,11.00
2022-10-17T03:35:41.061Z,11.00
2022-10-17T03:38:10.811Z,10.90
2022-10-17T03:40:39.016Z,10.90
2022-10-17T03:43:07.301Z,10.90
2022-10-17T03:45:35.558Z,10.90
2022-10-17T03:48:03.803Z,10.90
2022-10-17T03:50:32.043Z,10.90
2022-10-17T03:53:00.276Z,10.90
2022-10-17T03:55:29.912Z,10.90
2022-10-17T03:57:58.127Z,10.90
2022-10-17T04:00:26.382Z,10.90
2022-10-17T04:02:54.764Z,10.90
2022-10-17T04:05:23.069Z,10.90
2022-10-17T04:07:51.393Z,10.90
2022-10-17T04:10:20.670Z,10.80
2022-10-17T04:12:50.318Z,10.80
2022-10-17T04:15:18.716Z,10.80
2022-10-17T04:17:48.449Z,10.80
2022-10-17T04:20:16.985Z,10.80
2022-10-17T04:22:45.192Z,10.80
2022-10-17T04:25:13.608Z,10.80
2022-10-17T04:27:41.870Z,10.80
2022-10-17T04:30:12.475Z,10.80
2022-10-17T04:32:40.899Z,10.80
2022-10-17T04:35:10.113Z,10.80
2022-10-17T04:37:38.330Z,10.70
2022-10-17T04:40:07.651Z,10.70
2022-10-17T04:42:35.871Z,10.70
2022-10-17T04:45:04.185Z,10.70
2022-10-17T04:47:33.954Z,10.70
2022-10-17T04:50:02.173Z,10.70
2022-10-17T04:52:30.686Z,10.70
2022-10-17T04:54:59.383Z,10.70
2022-10-17T04:57:27.651Z,10.70
2022-10-17T04:59:58.475Z,10.70
2022-10-17T05:02:26.953Z,10.60
2022-10-17T05:04:56.815Z,10.60
2022-10-17T05:07:25.174Z,10.70
2022-10-17T05:09:53.396Z,10.70
2022-10-17T05:12:21.652Z,10.70
2022-10-17T05:14:49.883Z,10.70
2022-10-17T05:17:18.443Z,10.70
2022-10-17T05:19:46.689Z,10.70
2022-10-17T05:22:16.450Z,10.70
2022-10-17T05:24:44.663Z,10.80
2022-10-17T05:27:12.886Z,10.80
2022-10-17T05:29:41.104Z,10.80
2022-10-17T05:32:09.369Z,10.90
2022-10-17T05:34:37.568Z,10.90
2022-10-17T05:37:05.903Z,10.90
2022-10-17T05:39:35.583Z,10.90
2022-10-17T05:42:03.851Z,10.90
2022-10-17T05:44:32.091Z,11.00
2022-10-17T05:47:00.314Z,11.00
2022-10-17T05:49:45.036Z,11.10
2022-10-17T05:52:16.812Z,11.10
2022-10-17T05:54:46.547Z,11.20
2022-10-17T05:57:14.830Z,11.20
2022-10-17T05:59:43.056Z,11.30
2022-10-17T06:02:12.677Z,11.30
2022-10-17T06:04:45.510Z,11.40
2022-10-17T06:07:14.046Z,11.50
2022-10-17T06:09:42.441Z,11.50
2022-10-17T06:12:12.182Z,11.60
2022-10-17T06:14:40.395Z,11.60
2022-10-17T06:17:13.412Z,11.70
2022-10-17T06:19:44.913Z,11.80
2022-10-17T06:22:13.740Z,11.80
2022-10-17T06:24:42.391Z,11.90
2022-10-17T06:27:12.494Z,12.00
2022-10-17T06:29:40.923Z,12.00
2022-10-17T06:32:12.574Z,12.10
2022-10-17T06:34:43.276Z,12.10
2022-10-17T06:37:11.601Z,12.20
2022-10-17T06:39:40.072Z,12.30
2022-10-17T06:42:08.457Z,12.40
2022-10-17T06:44:41.288Z,12.50
2022-10-17T06:47:11.298Z,12.60
2022-10-17T06:49:56.761Z,12.60
2022-10-17T06:52:25.010Z,12.70
2022-10-17T06:54:53.306Z,12.80
2022-10-17T06:57:21.595Z,12.90
2022-10-17T06:59:51.241Z,12.90
2022-10-17T07:02:20.458Z,13.00
2022-10-17T07:04:48.682Z,13.10
2022-10-17T07:07:17.058Z,13.20
2022-10-17T07:09:45.281Z,13.30
2022-10-17T07:12:13.494Z,13.40
2022-10-17T07:14:42.117Z,13.40
2022-10-17T07:17:13.391Z,13.50
2022-10-17T07:19:47.394Z,13.60
2022-10-17T07:22:36.642Z,13.70
2022-10-17T07:25:05.056Z,13.80
2022-10-17T07:27:33.347Z,13.90
2022-10-17T07:30:01.555Z,14.00
2022-10-17T07:32:31.160Z,14.10
2022-10-17T07:34:59.413Z,14.20
2022-10-17T07:37:27.894Z,14.20
2022-10-17T07:39:56.649Z,14.30
2022-10-17T07:42:26.442Z,14.40
2022-10-17T07:44:56.172Z,14.50
2022-10-17T07:47:31.955Z,14.50
2022-10-17T07:50:02.466Z,14.60
2022-10-17T07:52:31.034Z,14.70
2022-10-17T07:54:59.508Z,14.80
2022-10-17T07:57:28.066Z,14.90
2022-10-17T07:59:56.738Z,15.00
2022-10-17T08:02:26.940Z,15.10
2022-10-17T08:04:55.494Z,15.10
2022-10-17T08:07:29.139Z,15.20
2022-10-17T08:09:57.913Z,15.30
2022-10-17T08:12:26.294Z,15.30
2022-10-17T08:14:54.596Z,15.40
2022-10-17T08:17:22.821Z,15.50
2022-10-17T08:19:51.071Z,15.60
2022-10-17T08:22:19.775Z,15.70
2022-10-17T08:24:49.647Z,15.80
2022-10-17T08:27:23.771Z,15.80
2022-10-17T08:29:53.605Z,15.90
2022-10-17T08:32:23.932Z,16.00
2022-10-17T08:34:52.310Z,16.10
2022-10-17T08:37:20.991Z,16.10
2022-10-17T08:39:50.743Z,16.20
2022-10-17T08:43:03.432Z,16.20
2022-10-17T08:45:36.836Z,16.30
2022-10-17T08:48:10.550Z,16.40
2022-10-17T08:50:43.758Z,16.40
2022-10-17T08:53:20.055Z,16.50
2022-10-17T08:55:51.396Z,16.60
2022-10-17T08:58:22.396Z,16.70
2022-10-17T09:01:02.139Z,16.70
2022-10-17T09:03:56.027Z,16.80
2022-10-17T09:06:30.038Z,16.90
2022-10-17T09:09:19.122Z,17.00
2022-10-17T09:12:01.762Z,17.10
2022-10-17T09:14:45.880Z,17.20
2022-10-17T09:17:25.922Z,17.20
2022-10-17T09:20:01.308Z,17.30
2022-10-17T09:22:36.052Z,17.40
2022-10-17T09:25:07.803Z,17.50
2022-10-17T09:27:44.318Z,17.50
2022-10-17T09:30:50.548Z,17.60
2022-10-17T09:33:35.511Z,17.70
2022-10-17T09:36:14.347Z,17.70
2022-10-17T09:38:44.704Z,17.70
2022-10-17T09:41:43.564Z,17.80
2022-10-17T09:44:18.991Z,17.90
2022-10-17T09:47:10.695Z,17.90
2022-10-17T09:49:40.861Z,18.00
2022-10-17T09:52:13.724Z,18.00
2022-10-17T09:54:45.586Z,18.10
2022-10-17T09:57:15.107Z,18.10
2022-10-17T09:59:47.112Z,18.20
2022-10-17T10:02:21.768Z,18.30
2022-10-17T10:05:04.595Z,18.30
2022-10-17T10:07:38.696Z,18.40
2022-10-17T10:10:09.749Z,18.40
2022-10-17T10:12:39.952Z,18.50
2022-10-17T10:15:33.914Z,18.50
2022-10-17T10:18:02.282Z,18.60
2022-10-17T10:20:34.527Z,18.60
2022-10-17T10:23:14.736Z,18.70
2022-10-17T10:26:00.549Z,18.70
2022-10-17T10:28:32.523Z,18.80
2022-10-17T10:31:05.983Z,18.80
2022-10-17T10:33:41.369Z,18.90
2022-10-17T10:36:10.161Z,18.90
2022-10-17T10:38:42.553Z,19.00
2022-10-17T10:41:12.602Z,19.00
2022-10-17T10:43:44.546Z,19.10
2022-10-17T10:46:21.090Z,19.10
2022-10-17T10:48:54.934Z,19.10
2022-10-17T10:51:28.927Z,19.20
2022-10-17T10:54:04.552Z,19.20
2022-10-17T10:56:38.379Z,19.20
2022-10-17T10:59:13.631Z,19.30
2022-10-17T11:01:49.243Z,19.40
2022-10-17T11:04:28.576Z,19.40
2022-10-17T11:07:02.377Z,19.40
2022-10-17T11:09:41.903Z,19.50
2022-10-17T11:12:18.217Z,19.50
2022-10-17T11:14:52.334Z,19.50
2022-10-17T11:17:30.603Z,19.60
2022-10-17T11:20:17.488Z,19.60
2022-10-17T11:22:48.634Z,19.70
2022-10-17T11:25:25.887Z,19.70
2022-10-17T11:27:54.142Z,19.80
2022-10-17T11:30:24.638Z,19.80
2022-10-17T11:32:58.129Z,19.90
2022-10-17T11:35:28.440Z,19.90
2022-10-17T11:38:07.583Z,19.90
2022-10-17T11:40:39.677Z,19.90
2022-10-17T11:43:15.977Z,20.00
2022-10-17T11:45:48.434Z,20.00
2022-10-17T11:48:24.626Z,20.10
2022-10-17T11:53:56.807Z,20.20
2022-10-17T11:56:33.116Z,20.20
2022-10-17T11:59:18.975Z,20.30
2022-10-17T12:01:53.776Z,20.30
2022-10-17T12:04:42.797Z,20.40
2022-10-17T12:07:20.196Z,20.40
2022-10-17T12:09:56.123Z,20.40
2022-10-17T12:12:30.048Z,20.50
2022-10-17T12:15:29.558Z,20.60
2022-10-17T12:18:01.597Z,20.60
2022-10-17T12:20:34.205Z,20.60
2022-10-17T12:23:20.275Z,20.70
2022-10-17T12:25:55.041Z,20.70
2022-10-17T12:28:31.293Z,20.80
2022-10-17T12:31:02.235Z,20.80
2022-10-17T12:33:35.677Z,20.80
2022-10-17T12:36:49.473Z,20.90
2022-10-17T12:39:52.524Z,21.00
2022-10-17T12:42:49.939Z,21.00
2022-10-17T12:45:47.547Z,21.20
2022-10-17T12:48:54.284Z,21.40
2022-10-17T12:51:40.523Z,21.70
2022-10-17T12:54:13.583Z,21.80
2022-10-17T12:56:45.686Z,22.00
2022-10-17T12:59:18.095Z,21.90
2022-10-17T13:01:49.505Z,21.90
2022-10-17T13:04:18.975Z,21.90
2022-10-17T13:06:50.493Z,21.90
2022-10-17T13:09:26.047Z,21.80
2022-10-17T13:11:58.768Z,21.80
2022-10-17T13:14:28.057Z,21.80
2022-10-17T13:16:58.516Z,21.80
2022-10-17T13:19:28.601Z,21.80
2022-10-17T13:22:06.088Z,21.80
2022-10-17T13:24:37.320Z,21.80
2022-10-17T13:27:08.798Z,21.80
2022-10-17T13:29:45.035Z,21.70
2022-10-17T13:32:13.586Z,21.70
2022-10-17T13:34:41.929Z,21.60
2022-10-17T13:37:15.930Z,21.70
2022-10-17T13:40:00.362Z,21.70
2022-10-17T13:42:41.635Z,21.60
2022-10-17T13:45:19.973Z,21.60
2022-10-17T13:47:48.779Z,21.60
2022-10-17T13:50:43.645Z,21.60
2022-10-17T13:53:25.589Z,21.60
2022-10-17T13:56:22.945Z,21.50
2022-10-17T13:58:51.457Z,21.50
2022-10-17T14:01:21.618Z,21.50
2022-10-17T14:04:02.151Z,21.50
2022-10-17T14:06:41.587Z,21.40
2022-10-17T14:09:20.792Z,21.40
2022-10-17T14:12:01.932Z,21.40
2022-10-17T14:14:51.759Z,21.30
2022-10-17T14:17:26.424Z,21.30
2022-10-17T14:20:16.087Z,21.30
2022-10-17T14:22:50.543Z,21.30
2022-10-17T14:25:31.564Z,21.20
2022-10-17T14:28:11.107Z,21.20
2022-10-17T14:30:56.227Z,21.20
2022-10-17T14:33:28.649Z,21.20
2022-10-17T14:35:59.530Z,21.10
2022-10-17T14:38:29.104Z,21.10
2022-10-17T14:41:30.243Z,21.00
2022-10-17T14:43:55.638Z,21.00
2022-10-17T14:46:26.418Z,21.00
2022-10-17T14:48:57.303Z,21.00
2022-10-17T14:51:25.588Z,20.90
2022-10-17T14:54:06.349Z,20.90
2022-10-17T14:56:41.449Z,20.80
2022-10-17T14:59:13.872Z,20.70
2022-10-17T15:02:12.665Z,20.70
2022-10-17T15:04:41.073Z,20.60
2022-10-17T15:07:11.535Z,20.50
2022-10-17T15:09:39.820Z,20.40
2022-10-17T15:12:13.852Z,20.30
2022-10-17T15:14:43.324Z,20.30
2022-10-17T15:17:18.603Z,20.20
2022-10-17T15:19:46.835Z,20.10
2022-10-17T15:22:16.282Z,20.10
2022-10-17T15:24:46.212Z,19.90
2022-10-17T15:27:17.546Z,19.90
2022-10-17T15:29:46.051Z,19.80
2022-10-17T15:32:15.949Z,19.70
2022-10-17T15:34:44.214Z,19.60
2022-10-17T15:37:20.946Z,19.50
2022-10-17T15:39:53.554Z,19.40
2022-10-17T15:42:23.705Z,19.30
2022-10-17T15:44:52.070Z,19.20
2022-10-17T15:47:26.002Z,19.10
2022-10-17T15:49:54.610Z,19.10
2022-10-17T15:52:23.184Z,19.00
2022-10-17T15:54:51.534Z,18.90
2022-10-17T15:57:21.534Z,18.80
2022-10-17T15:59:50.393Z,18.70
2022-10-17T16:02:20.954Z,18.60
2022-10-17T16:04:52.381Z,18.50
2022-10-17T16:07:21.413Z,18.50
2022-10-17T16:09:49.654Z,18.40
2022-10-17T16:12:19.773Z,18.30
2022-10-17T16:14:48.083Z,18.20
2022-10-17T16:17:17.746Z,18.10
2022-10-17T16:19:46.132Z,18.00
2022-10-17T16:22:24.408Z,18.00
2022-10-17T16:24:58.382Z,17.90
2022-10-17T16:27:27.264Z,17.80
2022-10-17T16:29:55.516Z,17.80
2022-10-17T16:32:23.776Z,17.70
2022-10-17T16:34:52.090Z,17.60
2022-10-17T16:37:21.802Z,17.50
2022-10-17T16:39:52.586Z,17.50
2022-10-17T16:42:21.494Z,17.40
2022-10-17T16:44:50.386Z,17.30
2022-10-17T16:47:19.269Z,17.30
2022-10-17T16:49:47.864Z,17.20
2022-10-17T16:52:16.109Z,17.10
2022-10-17T16:54:45.782Z,17.10
2022-10-17T16:57:14.097Z,17.00
2022-10-17T16:59:42.491Z,16.90
2022-10-17T17:02:12.053Z,16.90
2022-10-17T17:04:40.444Z,16.80
2022-10-17T17:07:08.727Z,16.80
2022-10-17T17:09:37.116Z,16.70
2022-10-17T17:12:06.975Z,16.60
2022-10-17T17:14:35.230Z,16.60
2022-10-17T17:17:03.526Z,16.50
2022-10-17T17:19:31.939Z,16.50
2022-10-17T17:22:00.175Z,16.40
2022-10-17T17:24:28.727Z,16.40
2022-10-17T17:26:58.033Z,16.30
2022-10-17T17:29:27.718Z,16.30
2022-10-17T17:31:55.957Z,16.30
2022-10-17T17:34:24.217Z,16.20
2022-10-17T17:36:52.570Z,16.10
2022-10-17T17:39:20.855Z,16.10
2022-10-17T17:41:49.124Z,16.00
2022-10-17T17:44:17.432Z,16.00
2022-10-17T17:46:48.012Z,16.00
2022-10-17T17:49:18.924Z,15.90
2022-10-17T17:51:47.438Z,15.80
2022-10-17T17:54:16.258Z,15.80
2022-10-17T17:56:44.664Z,15.80
2022-10-17T17:59:14.543Z,15.80
2022-10-17T18:01:44.051Z,15.70
2022-10-17T18:04:15.391Z,15.60
2022-10-17T18:06:43.724Z,15.60
2022-10-17T18:09:12.392Z,15.60
2022-10-17T18:11:40.665Z,15.50
2022-10-17T18:14:12.431Z,15.50
2022-10-17T18:16:40.816Z,15.50
2022-10-17T18:19:17.929Z,15.40
2022-10-17T18:21:46.252Z,15.40
2022-10-17T18:24:14.476Z,15.40
2022-10-17T18:26:42.719Z,15.40
2022-10-17T18:29:12.749Z,15.40
2022-10-17T18:31:41.079Z,15.30
2022-10-17T18:34:09.455Z,15.30
2022-10-17T18:36:39.173Z,15.30
2022-10-17T18:39:07.482Z,15.30
2022-10-17T18:41:36.225Z,15.20
2022-10-17T18:44:05.129Z,15.20
2022-10-17T18:46:36.465Z,15.20
2022-10-17T18:49:06.956Z,15.20
2022-10-17T18:51:35.213Z,15.20
2022-10-17T18:54:05.219Z,15.10
2022-10-17T18:56:33.522Z,15.10
2022-10-17T18:59:02.246Z,15.10
2022-10-17T19:01:30.532Z,15.00
2022-10-17T19:04:00.138Z,15.00
2022-10-17T19:06:32.104Z,15.00
2022-10-17T19:09:01.206Z,15.00
2022-10-17T19:11:32.759Z,14.90
2022-10-17T19:14:02.637Z,14.90
2022-10-17T19:16:33.155Z,14.80
2022-10-17T19:19:05.918Z,14.80
2022-10-17T19:21:34.780Z,14.80
2022-10-17T19:24:04.914Z,14.80
2022-10-17T19:26:37.196Z,14.70
2022-10-17T19:29:06.132Z,14.70
2022-10-17T19:31:35.559Z,14.70
2022-10-17T19:34:04.334Z,14.60
2022-10-17T19:36:34.818Z,14.60
2022-10-17T19:39:04.469Z,14.60
2022-10-17T19:41:35.447Z,14.50
2022-10-17T19:44:03.959Z,14.50
2022-10-17T19:46:34.012Z,14.50
2022-10-17T19:49:02.939Z,14.50
2022-10-17T19:51:31.657Z,14.50
2022-10-17T19:54:01.766Z,14.40
2022-10-17T19:56:31.740Z,14.40
2022-10-17T19:59:01.385Z,14.40
2022-10-17T20:01:31.581Z,14.30
2022-10-17T20:04:00.018Z,14.30
2022-10-17T20:06:28.867Z,14.30
2022-10-17T20:08:57.254Z,14.30
2022-10-17T20:11:27.623Z,14.20
2022-10-17T20:13:56.955Z,14.20
2022-10-17T20:16:31.346Z,14.20
2022-10-17T20:19:04.634Z,14.10
2022-10-17T20:21:35.075Z,14.10
2022-10-17T20:24:05.553Z,14.10
2022-10-17T20:26:39.059Z,14.10
2022-10-17T20:29:11.265Z,14.00
2022-10-17T20:31:43.071Z,14.00
2022-10-17T20:34:14.035Z,14.00
2022-10-17T20:36:42.439Z,13.90
2022-10-17T20:39:12.594Z,13.90
2022-10-17T20:41:41.455Z,13.90
2022-10-17T20:44:10.089Z,13.90
2022-10-17T20:46:45.211Z,13.80
2022-10-17T20:49:26.135Z,13.80
2022-10-17T20:51:54.513Z,13.80
2022-10-17T20:54:22.833Z,13.80
2022-10-17T20:56:51.208Z,13.80
2022-10-17T20:59:19.853Z,13.80
2022-10-17T21:01:49.651Z,13.70
2022-10-17T21:07:07.026Z,13.70
2022-10-17T21:09:35.283Z,13.60
2022-10-17T21:12:05.364Z,13.60
2022-10-17T21:14:36.406Z,13.60
2022-10-17T21:17:06.073Z,13.60
2022-10-17T21:19:34.623Z,13.50
2022-10-17T21:22:02.895Z,13.50
2022-10-17T21:24:31.770Z,13.50
2022-10-17T21:27:00.125Z,13.50
2022-10-17T21:29:28.541Z,13.50
2022-10-17T21:31:57.025Z,13.40
2022-10-17T21:34:26.686Z,13.40
2022-10-17T21:36:54.975Z,13.40
2022-10-17T21:39:24.927Z,13.40
2022-10-17T21:41:53.785Z,13.40
2022-10-17T21:44:24.708Z,13.40
2022-10-17T21:46:53.414Z,13.40
2022-10-17T21:49:23.553Z,13.40
2022-10-17T21:51:53.827Z,13.40
2022-10-17T21:54:23.576Z,13.30
2022-10-17T21:56:52.040Z,13.30
2022-10-17T21:59:20.390Z,13.30
2022-10-17T22:01:48.773Z,13.30
2022-10-17T22:04:18.909Z,13.20
2022-10-17T22:06:51.034Z,13.20
2022-10-17T22:09:23.464Z,13.20
2022-10-17T22:11:54.077Z,13.10
2022-10-17T22:14:23.533Z,13.10
2022-10-17T22:16:52.133Z,13.10
2022-10-17T22:19:22.774Z,13.10
2022-10-17T22:21:51.297Z,13.00
2022-10-17T22:24:22.880Z,13.00
2022-10-17T22:26:52.025Z,13.00
2022-10-17T22:29:20.607Z,13.00
2022-10-17T22:31:48.986Z,12.90
2022-10-17T22:34:18.666Z,12.90
2022-10-17T22:36:47.842Z,12.90
2022-10-17T22:39:16.266Z,12.80
2022-10-17T22:41:45.871Z,12.80
2022-10-17T22:44:14.116Z,12.80
2022-10-17T22:46:42.418Z,12.70
2022-10-17T22:49:10.713Z,12.70
2022-10-17T22:51:38.968Z,12.70
2022-10-17T22:54:07.702Z,12.70
2022-10-17T22:56:35.957Z,12.70
2022-10-17T22:59:05.634Z,12.60
2022-10-17T23:01:33.960Z,12.60
2022-10-17T23:04:02.243Z,12.60
2022-10-17T23:06:30.488Z,12.60
2022-10-17T23:08:58.799Z,12.60
2022-10-17T23:11:27.056Z,12.50
2022-10-17T23:13:55.280Z,12.50
2022-10-17T23:16:24.913Z,12.40
2022-10-17T23:18:53.189Z,12.50
2022-10-17T23:21:21.452Z,12.40
2022-10-17T23:23:49.695Z,12.40
2022-10-17T23:26:17.940Z,12.40
2022-10-17T23:28:46.230Z,12.40
2022-10-17T23:31:16.822Z,12.30
2022-10-17T23:33:47.943Z,12.30
2022-10-17T23:36:18.137Z,12.30
2022-10-17T23:38:47.459Z,12.30
2022-10-17T23:41:16.058Z,12.20
2022-10-17T23:43:44.756Z,12.20
2022-10-17T23:46:13.579Z,12.20
2022-10-17T23:48:42.219Z,12.20
2022-10-17T23:51:12.344Z,12.20
2022-10-17T23:53:41.410Z,12.20
2022-10-17T23:56:11.438Z,12.10
2022-10-17T23:58:48.128Z,12.10
